Rimrock, Washington
Current Conditions -  °F | °C
As of 9:53 AM on Saturday 25 Oct 2014 (Local Time) from KYKM Reporting Station
Broken Clouds Broken Clouds  
Wind Chill: 51°   Ceiling: 3500
Heat Index: 51°   Visibility: 10mi
Dew Point: 46°   Wind: 5mph
Humidity: 83%   Direction: 230°SW
Pressure: 29.64"   Gusts: NA
Location:  46.6628°N, 121.193°W
Report Text: KYKM 251653Z 23004KT 10SM BKN035 11/08 A2964 RMK AO2 RAB37E46 SLP038 P0000 T01060078
Loading
Personal Weather Stations






























Interactive Weather Map
Tropical Storm Tracking
New forecast layout! Learn more

10-Day Weather Forecast

Advertisements
Track Severe Weather on mobile